Time;durP1;ratioP1;P1;durP2;ratioP2;P2;SDS_P1;SDS_P2;PMS_P1;PMS_P2;Temp;Humidity;BMP_temperature;BMP_pressure;BME280_temperature;BME280_humidity;BME280_pressure;Samples;Min_cycle;Max_cycle;Signal;HPM_P1;HPM_P2
2022/04/05 00:00:20;;;;;;;;;;;8.20;99.90;;;6.72;100.00;100074.59;2568639;30;138122;-40
2022/04/05 00:02:48;;;;;;;;;;;8.20;99.90;;;6.75;100.00;100074.16;2569921;30;137047;-40
2022/04/05 00:05:18;;;;;;;;;;;8.20;99.90;;;6.73;100.00;100071.69;2569656;30;136773;-40
2022/04/05 00:07:46;;;;;;;;;;;8.30;99.90;;;6.74;100.00;100084.19;2570898;30;137772;-41
2022/04/05 00:10:14;;;;;;;;;;;8.30;99.90;;;6.73;100.00;100077.09;2570728;30;137910;-40
2022/04/05 00:12:41;;;;;;;;;;;8.30;99.90;;;6.75;100.00;100063.31;2569232;30;138310;-41
2022/04/05 00:15:09;;;;;;;;;;;8.30;99.90;;;6.80;100.00;100071.69;2568511;30;137195;-40
2022/04/05 00:17:38;;;;;;;;;;;8.30;99.90;;;6.81;100.00;100070.66;2568381;30;137728;-42
2022/04/05 00:20:07;;;;;;;;;;;8.30;99.90;;;6.84;100.00;100067.53;2567490;30;137263;-41
2022/04/05 00:22:35;;;;;;;;;;;8.30;99.90;;;6.87;100.00;100080.66;2567180;30;138720;-40
2022/04/05 00:25:05;;;;;;;;;;;8.40;99.90;;;6.86;100.00;100080.88;2570207;30;137254;-41
2022/04/05 00:27:33;;;;;;;;;;;8.30;99.90;;;6.88;100.00;100076.91;2570415;30;138328;-40
2022/04/05 00:30:00;;;;;;;;;;;8.40;99.90;;;6.93;100.00;100076.31;2567317;30;139680;-40
2022/04/05 00:32:28;;;;;;;;;;;8.40;99.90;;;6.93;100.00;100076.31;2571089;30;137012;-40
2022/04/05 00:34:55;;;;;;;;;;;8.40;99.90;;;6.96;100.00;100075.03;2568795;30;137963;-40
2022/04/05 00:37:23;;;;;;;;;;;8.40;99.90;;;6.98;100.00;100070.25;2568816;30;138288;-41
2022/04/05 00:39:50;;;;;;;;;;;8.50;99.90;;;6.98;100.00;100072.94;2569835;30;137583;-40
2022/04/05 00:42:18;;;;;;;;;;;8.50;99.90;;;7.01;100.00;100076.09;2569381;30;139045;-40
2022/04/05 00:44:45;;;;;;;;;;;8.50;99.90;;;7.05;100.00;100068.41;2569098;30;137369;-41
2022/04/05 00:47:19;;;;;;;;;;;8.50;99.90;;;7.03;100.00;100065.88;2567926;30;138317;-41
2022/04/05 00:49:49;;;;;;;;;;;8.50;99.90;;;6.97;100.00;100055.00;2570242;30;137049;-41
2022/04/05 00:52:18;;;;;;;;;;;8.60;99.90;;;7.07;100.00;100082.59;2568799;30;138352;-41
2022/04/05 00:54:47;;;;;;;;;;;8.60;99.90;;;7.05;100.00;100062.97;2570472;30;137299;-40
2022/04/05 00:57:18;;;;;;;;;;;8.60;99.90;;;7.09;100.00;100076.94;2569524;30;138276;-40
2022/04/05 00:59:59;;;;;;;;;;;8.60;99.90;;;7.10;100.00;100075.88;2571122;30;137166;-40
2022/04/05 01:02:30;;;;;;;;;;;8.60;99.90;;;7.13;100.00;100075.47;2570829;30;138670;-40
2022/04/05 01:04:58;;;;;;;;;;;8.60;99.90;;;7.13;100.00;100075.47;2569115;30;137040;-40
2022/04/05 01:07:28;;;;;;;;;;;8.60;99.90;;;7.07;100.00;100074.44;2568841;30;138370;-40
2022/04/05 01:09:56;;;;;;;;;;;8.60;99.90;;;7.14;100.00;100071.72;2568133;30;137413;-40
2022/04/05 01:12:23;;;;;;;;;;;8.60;99.90;;;7.09;100.00;100074.22;2568503;30;138143;-40
2022/04/05 01:14:52;;;;;;;;;;;8.60;99.90;;;7.10;100.00;100075.88;2569329;30;136724;-41
2022/04/05 01:17:20;;;;;;;;;;;8.60;99.90;;;7.14;100.00;100085.28;2570497;30;138187;-41
2022/04/05 01:19:47;;;;;;;;;;;8.60;99.90;;;7.16;100.00;100086.75;2571895;30;136933;-40
2022/04/05 01:22:15;;;;;;;;;;;8.60;99.90;;;7.18;100.00;100086.56;2568608;30;138351;-41
2022/04/05 01:24:43;;;;;;;;;;;8.70;99.90;;;7.20;100.00;100088.00;2570466;30;138328;-45
2022/04/05 01:27:17;;;;;;;;;;;8.70;99.90;;;7.18;100.00;100087.38;2568294;30;138329;-40
2022/04/05 01:29:47;;;;;;;;;;;8.70;99.90;;;7.24;100.00;100084.88;2569456;30;137358;-40
2022/04/05 01:34:39;;;;;;;;;;;8.70;99.90;;;7.29;100.00;100090.50;2567198;30;156060;-39
2022/04/05 01:37:12;;;;;;;;;;;8.70;99.90;;;7.32;100.00;100085.50;2567165;30;136779;-39
2022/04/05 01:39:41;;;;;;;;;;;8.80;99.90;;;7.32;100.00;100087.38;2569252;30;137191;-39
2022/04/05 01:42:12;;;;;;;;;;;8.80;99.90;;;7.35;100.00;100089.69;2568171;30;136765;-39
2022/04/05 01:44:41;;;;;;;;;;;8.80;99.90;;;7.38;100.00;100078.41;2567781;30;138298;-39
2022/04/05 01:47:13;;;;;;;;;;;8.80;99.90;;;7.37;100.00;100081.31;2568472;30;136804;-40
2022/04/05 01:49:44;;;;;;;;;;;8.80;99.90;;;7.40;100.00;100081.75;2568393;30;137860;-39
2022/04/05 01:52:12;;;;;;;;;;;8.90;99.90;;;7.41;100.00;100083.41;2565885;30;137756;-39
2022/04/05 01:54:39;;;;;;;;;;;8.90;99.90;;;7.46;100.00;100082.78;2567678;30;138401;-40
2022/04/05 01:57:07;;;;;;;;;;;8.90;99.90;;;7.43;100.00;100081.31;2568239;30;137115;-39
2022/04/05 01:59:37;;;;;;;;;;;8.90;99.90;;;7.47;100.00;100077.13;2568160;30;138438;-39
2022/04/05 02:02:05;;;;;;;;;;;9.00;99.90;;;7.48;100.00;100077.97;2568054;30;137213;-39
2022/04/05 02:04:33;;;;;;;;;;;9.00;99.90;;;7.51;100.00;100083.00;2567520;30;138894;-39
2022/04/05 02:07:08;;;;;;;;;;;9.00;99.90;;;7.49;100.00;100085.09;2567977;30;136966;-39
2022/04/05 02:09:36;;;;;;;;;;;9.00;99.90;;;7.51;100.00;100087.56;2567945;30;139183;-39
2022/04/05 02:12:04;;;;;;;;;;;9.00;99.90;;;7.45;100.00;100087.38;2567544;30;137283;-39
2022/04/05 02:14:54;;;;;;;;;;;9.00;99.90;;;7.46;100.00;100090.94;2567816;30;140249;-40
2022/04/05 02:17:41;;;;;;;;;;;9.00;99.90;;;7.48;100.00;100086.94;2567250;30;136949;-39
2022/04/05 02:20:12;;;;;;;;;;;9.00;99.90;;;7.46;100.00;100080.06;2565929;30;141109;-40
2022/04/05 02:22:39;;;;;;;;;;;8.90;99.90;;;7.48;100.00;100076.09;2567270;30;136909;-40
2022/04/05 02:25:17;;;;;;;;;;;8.90;99.90;;;7.53;100.00;100085.47;2567031;30;140509;-39
2022/04/05 02:27:47;;;;;;;;;;;9.00;99.90;;;7.49;100.00;100083.19;2568524;30;136987;-40
2022/04/05 02:30:21;;;;;;;;;;;9.00;99.90;;;7.49;100.00;100087.78;2568655;30;140277;-40
2022/04/05 02:32:53;;;;;;;;;;;9.00;99.90;;;7.49;100.00;100085.91;2568437;30;138475;-40
2022/04/05 02:35:21;;;;;;;;;;;9.00;99.90;;;7.54;100.00;100087.13;2565389;30;139948;-39
2022/04/05 02:37:50;;;;;;;;;;;9.00;99.90;;;7.54;100.00;100093.41;2566342;30;138723;-39
2022/04/05 02:40:21;;;;;;;;;;;9.00;99.90;;;7.52;100.00;100084.66;2568210;30;139434;-39
2022/04/05 02:42:52;;;;;;;;;;;9.00;99.90;;;7.50;100.00;100094.88;2568386;30;138080;-41
2022/04/05 02:45:20;;;;;;;;;;;9.00;99.90;;;7.56;100.00;100085.91;2569172;30;140406;-40
2022/04/05 02:47:48;;;;;;;;;;;9.00;99.90;;;7.57;100.00;100084.84;2564743;30;137000;-40
2022/04/05 02:50:18;;;;;;;;;;;9.00;99.90;;;7.58;100.00;100083.81;2568638;30;138746;-40
2022/04/05 02:52:48;;;;;;;;;;;9.00;99.90;;;7.55;100.00;100086.94;2568904;30;136920;-39
2022/04/05 02:55:18;;;;;;;;;;;9.00;99.90;;;7.58;100.00;100086.53;2568789;30;138889;-39
2022/04/05 02:57:46;;;;;;;;;;;9.00;99.90;;;7.60;100.00;100087.13;2567857;30;137019;-39
2022/04/05 03:00:21;;;;;;;;;;;9.00;99.90;;;7.59;100.00;100087.38;2568246;30;137088;-39
2022/04/05 03:02:50;;;;;;;;;;;9.10;99.90;;;7.62;100.00;100081.50;2567699;30;138054;-40
2022/04/05 03:05:22;;;;;;;;;;;9.10;99.90;;;7.66;100.00;100087.34;2568530;30;138989;-39
2022/04/05 03:07:54;;;;;;;;;;;9.10;99.90;;;7.68;100.00;100096.09;2567592;30;137079;-40
2022/04/05 03:10:22;;;;;;;;;;;9.20;99.90;;;7.66;100.00;100093.63;2568094;30;140359;-39
2022/04/05 03:12:52;;;;;;;;;;;9.10;99.90;;;7.64;100.00;100084.84;2568501;30;137153;-39
2022/04/05 03:15:21;;;;;;;;;;;9.10;99.90;;;7.69;100.00;100095.91;2567879;30;139513;-39
2022/04/05 03:17:53;;;;;;;;;;;9.10;99.90;;;7.72;100.00;100102.81;2567695;30;139304;-40
2022/04/05 03:20:22;;;;;;;;;;;9.20;99.90;;;7.76;100.00;100093.19;2568343;30;138129;-40
2022/04/05 03:22:55;;;;;;;;;;;9.20;99.90;;;7.78;100.00;100093.81;2567934;30;138686;-39
2022/04/05 03:25:23;;;;;;;;;;;9.20;99.90;;;7.80;100.00;100096.28;2569283;30;138470;-40
2022/04/05 03:27:53;;;;;;;;;;;9.30;99.90;;;7.81;100.00;100095.25;2567560;30;138312;-40
2022/04/05 03:30:23;;;;;;;;;;;9.30;99.90;;;7.81;100.00;100100.69;2567269;30;138204;-39
2022/04/05 03:32:53;;;;;;;;;;;9.30;99.90;;;7.77;100.00;100101.09;2568507;30;138377;-40
2022/04/05 03:35:20;;;;;;;;;;;9.20;99.90;;;7.77;100.00;100098.38;2568662;30;139823;-40
2022/04/05 03:37:49;;;;;;;;;;;9.20;99.90;;;7.76;100.00;100095.91;2564871;30;139161;-40
2022/04/05 03:40:17;;;;;;;;;;;9.20;99.90;;;7.76;100.00;100095.91;2567883;30;138365;-40
2022/04/05 03:42:47;;;;;;;;;;;9.20;99.90;;;7.74;100.00;100092.56;2567342;30;140102;-40
2022/04/05 03:45:15;;;;;;;;;;;9.20;99.90;;;7.76;100.00;100093.19;2568799;30;138277;-39
2022/04/05 03:47:43;;;;;;;;;;;9.20;99.90;;;7.75;100.00;100088.81;2568012;30;138719;-40
2022/04/05 03:50:13;;;;;;;;;;;9.20;99.90;;;7.70;100.00;100091.31;2565221;30;140561;-40
2022/04/05 03:52:43;;;;;;;;;;;9.20;99.90;;;7.79;100.00;100100.91;2568509;30;137242;-40
2022/04/05 03:55:14;;;;;;;;;;;9.20;99.90;;;7.81;100.00;100101.53;2567530;30;140557;-40
2022/04/05 03:57:46;;;;;;;;;;;9.30;99.90;;;7.83;100.00;100099.44;2568115;30;138489;-40
2022/04/05 04:00:16;;;;;;;;;;;9.30;99.90;;;7.84;100.00;100095.66;2567869;30;138364;-40
2022/04/05 04:02:53;;;;;;;;;;;9.30;99.90;;;7.85;100.00;100101.94;2568778;30;136812;-40
2022/04/05 04:05:21;;;;;;;;;;;9.30;99.90;;;7.83;100.00;100095.91;2568955;30;140497;-40
2022/04/05 04:07:52;;;;;;;;;;;9.30;99.90;;;7.81;100.00;100103.41;2567780;30;138387;-40
2022/04/05 04:10:22;;;;;;;;;;;9.30;99.90;;;7.88;100.00;100099.63;2568471;30;140566;-39
2022/04/05 04:12:54;;;;;;;;;;;9.30;99.90;;;7.93;100.00;100107.16;2566191;30;138389;-39
2022/04/05 04:15:22;;;;;;;;;;;9.40;99.90;;;7.98;100.00;100107.34;2567459;30;139370;-40
2022/04/05 04:17:51;;;;;;;;;;;9.40;99.90;;;7.96;100.00;100101.28;2568177;30;138640;-39
2022/04/05 04:20:20;;;;;;;;;;;9.40;99.90;;;7.98;100.00;100106.50;2565344;30;139238;-40
2022/04/05 04:22:48;;;;;;;;;;;9.40;99.90;;;8.01;100.00;100108.81;2566776;30;137342;-40
2022/04/05 04:25:16;;;;;;;;;;;9.50;99.90;;;8.01;100.00;100115.06;2568818;30;138294;-39
2022/04/05 04:27:44;;;;;;;;;;;9.50;99.90;;;8.07;100.00;100107.94;2569344;30;137129;-40
2022/04/05 04:30:12;;;;;;;;;;;9.50;99.90;;;8.04;100.00;100106.47;2569593;30;138518;-40
2022/04/05 04:32:39;;;;;;;;;;;9.50;99.90;;;8.04;100.00;100108.38;2568574;30;137036;-40
2022/04/05 04:35:08;;;;;;;;;;;9.50;99.90;;;8.06;100.00;100100.84;2566127;30;138409;-40
2022/04/05 04:37:36;;;;;;;;;;;9.50;99.90;;;8.08;100.00;100104.19;2567217;30;137315;-40
2022/04/05 04:40:04;;;;;;;;;;;9.50;99.90;;;8.07;100.00;100107.94;2567472;30;137363;-40
2022/04/05 04:42:35;;;;;;;;;;;9.60;99.90;;;8.09;100.00;100102.28;2568226;30;136644;-40
2022/04/05 04:45:02;;;;;;;;;;;9.60;99.90;;;8.08;100.00;100109.63;2567717;30;138941;-40
2022/04/05 04:47:30;;;;;;;;;;;9.50;99.90;;;8.11;100.00;100102.94;2567286;30;137154;-40
2022/04/05 04:49:57;;;;;;;;;;;9.50;99.90;;;8.12;100.00;100105.41;2567450;30;139112;-40
2022/04/05 04:52:26;;;;;;;;;;;9.50;99.90;;;8.13;100.00;100100.81;2567452;30;138050;-40
2022/04/05 04:54:53;;;;;;;;;;;9.60;99.90;;;8.09;100.00;100100.41;2568426;30;138480;-40
2022/04/05 04:57:23;;;;;;;;;;;9.50;99.90;;;8.12;100.00;100110.84;2568314;30;138055;-40
2022/04/05 04:59:52;;;;;;;;;;;9.60;99.90;;;8.11;100.00;100105.66;2569312;30;137436;-40
2022/04/05 05:02:22;;;;;;;;;;;9.60;99.90;;;8.08;100.00;100115.03;2568587;30;136686;-40
2022/04/05 05:04:51;;;;;;;;;;;9.50;99.90;;;8.09;100.00;100111.28;2568754;30;139213;-40
2022/04/05 05:07:18;;;;;;;;;;;9.50;99.90;;;8.14;100.00;100102.50;2568151;30;136802;-40
2022/04/05 05:09:46;;;;;;;;;;;9.60;99.90;;;8.16;100.00;100111.25;2567727;30;138925;-39
2022/04/05 05:12:13;;;;;;;;;;;9.60;99.90;;;8.19;100.00;100111.66;2566644;30;137227;-39
2022/04/05 05:14:41;;;;;;;;;;;9.60;99.90;;;8.19;100.00;100111.66;2568192;30;138409;-40
2022/04/05 05:17:08;;;;;;;;;;;9.60;99.90;;;8.19;100.00;100119.81;2568814;30;137271;-40
2022/04/05 05:19:36;;;;;;;;;;;9.60;99.90;;;8.21;100.00;100117.69;2567346;30;139306;-40
2022/04/05 05:22:03;;;;;;;;;;;9.60;99.90;;;8.20;100.00;100116.03;2566721;30;137381;-40
2022/04/05 05:24:31;;;;;;;;;;;9.70;99.90;;;8.22;100.00;100121.28;2567850;30;138056;-39
2022/04/05 05:26:58;;;;;;;;;;;9.60;99.90;;;8.26;100.00;100124.41;2568025;30;137932;-40
2022/04/05 05:29:26;;;;;;;;;;;9.70;99.90;;;8.26;100.00;100127.13;2568159;30;138154;-39
2022/04/05 05:31:53;;;;;;;;;;;9.70;99.90;;;8.28;100.00;100114.97;2568768;30;137245;-40
2022/04/05 05:34:23;;;;;;;;;;;9.70;99.90;;;8.28;100.00;100125.84;2567861;30;137228;-40
2022/04/05 05:36:50;;;;;;;;;;;9.70;99.90;;;8.32;100.00;100124.34;2567904;30;137185;-40
2022/04/05 05:39:18;;;;;;;;;;;9.70;99.90;;;8.35;100.00;100128.53;2567905;30;137221;-40
2022/04/05 05:41:47;;;;;;;;;;;9.70;99.90;;;8.36;100.00;100127.50;2564980;30;137600;-40
2022/04/05 05:44:15;;;;;;;;;;;9.80;99.90;;;8.35;100.00;100131.25;2567060;30;138985;-39
2022/04/05 05:46:42;;;;;;;;;;;9.80;99.90;;;8.33;100.00;100128.75;2567723;30;136719;-39
2022/04/05 05:49:10;;;;;;;;;;;9.80;99.90;;;8.34;100.00;100130.41;2567092;30;137247;-40
2022/04/05 05:51:37;;;;;;;;;;;9.80;99.90;;;8.31;100.00;100128.13;2567124;30;136993;-40
2022/04/05 05:54:05;;;;;;;;;;;9.80;99.90;;;8.29;100.00;100132.94;2566049;30;137587;-40
2022/04/05 05:56:32;;;;;;;;;;;9.80;99.90;;;8.43;100.00;100139.16;2568296;30;136735;-40
2022/04/05 05:59:00;;;;;;;;;;;9.80;99.90;;;8.42;100.00;100136.69;2565436;30;139912;-40
2022/04/05 06:01:27;;;;;;;;;;;9.80;99.90;;;8.42;100.00;100132.06;2568592;30;137866;-40
2022/04/05 06:03:55;;;;;;;;;;;9.90;99.90;;;8.44;100.00;100138.13;2568401;30;138567;-40
2022/04/05 06:06:22;;;;;;;;;;;9.90;99.90;;;8.45;100.00;100147.94;2569228;30;137185;-40
2022/04/05 06:08:50;;;;;;;;;;;9.90;99.90;;;8.46;100.00;100144.16;2568029;30;139208;-40
2022/04/05 06:11:17;;;;;;;;;;;9.90;99.90;;;8.45;100.00;100150.66;2569391;30;137359;-39
2022/04/05 06:13:45;;;;;;;;;;;9.90;99.90;;;8.48;100.00;100146.69;2568554;30;136991;-40
2022/04/05 06:16:14;;;;;;;;;;;9.90;99.90;;;8.54;100.00;100145.03;2568787;30;136858;-40
2022/04/05 06:18:42;;;;;;;;;;;10.00;99.90;;;8.52;100.00;100145.22;2568123;30;138383;-40
2022/04/05 06:21:10;;;;;;;;;;;9.90;99.90;;;8.52;100.00;100152.56;2569524;30;137966;-40
2022/04/05 06:23:37;;;;;;;;;;;9.90;99.90;;;8.53;100.00;100159.69;2567068;30;137438;-40
2022/04/05 06:26:04;;;;;;;;;;;9.90;99.90;;;8.52;100.00;100158.00;2569413;30;136893;-40
2022/04/05 06:28:32;;;;;;;;;;;9.90;99.90;;;8.57;100.00;100148.13;2568176;30;138480;-40
2022/04/05 06:31:00;;;;;;;;;;;10.00;99.90;;;8.56;100.00;100154.63;2567673;30;136814;-40
2022/04/05 06:33:27;;;;;;;;;;;10.00;99.90;;;8.59;100.00;100158.81;2568348;30;138249;-40
2022/04/05 06:35:59;;;;;;;;;;;10.00;99.90;;;8.59;100.00;100156.09;2566540;30;137294;-40
2022/04/05 06:38:27;;;;;;;;;;;10.00;99.90;;;8.60;100.00;100155.84;2568100;30;138486;-40
2022/04/05 06:41:00;;;;;;;;;;;10.00;99.90;;;8.59;100.00;100161.53;2568773;30;137781;-39
2022/04/05 06:43:29;;;;;;;;;;;10.00;99.90;;;8.61;100.00;100164.88;2567652;30;137125;-40
2022/04/05 06:45:57;;;;;;;;;;;10.00;99.90;;;8.55;100.00;100152.13;2569480;30;136850;-40
2022/04/05 06:48:24;;;;;;;;;;;10.10;99.90;;;8.63;100.00;100162.75;2568189;30;138369;-40
2022/04/05 06:50:53;;;;;;;;;;;10.00;99.90;;;8.64;100.00;100175.31;2567070;30;137183;-40
2022/04/05 06:53:22;;;;;;;;;;;10.10;99.90;;;8.62;100.00;100175.53;2567896;30;139031;-40
2022/04/05 06:55:49;;;;;;;;;;;10.00;99.90;;;8.66;100.00;100173.19;2566243;30;137130;-40
2022/04/05 06:58:17;;;;;;;;;;;10.10;99.90;;;8.66;100.00;100175.94;2569669;30;138190;-40
2022/04/05 07:00:45;;;;;;;;;;;10.10;99.90;;;8.65;100.00;100185.13;2569958;30;136760;-40
2022/04/05 07:03:12;;;;;;;;;;;10.10;99.90;;;8.66;100.00;100177.81;2568555;30;138219;-40
2022/04/05 07:05:39;;;;;;;;;;;10.10;99.90;;;8.73;100.00;100178.63;2569303;30;138021;-39
2022/04/05 07:08:10;;;;;;;;;;;10.10;99.90;;;8.69;100.00;100180.94;2567071;30;138999;-39
2022/04/05 07:10:37;;;;;;;;;;;10.10;99.90;;;8.69;100.00;100183.66;2568437;30;137071;-40
2022/04/05 07:13:08;;;;;;;;;;;10.20;99.90;;;8.71;100.00;100181.53;2568060;30;137356;-40
2022/04/05 07:15:35;;;;;;;;;;;10.10;99.90;;;8.76;100.00;100184.47;2565781;30;138427;-40
2022/04/05 07:18:03;;;;;;;;;;;10.20;99.90;;;8.78;100.00;100187.81;2569009;30;139110;-40
2022/04/05 07:20:34;;;;;;;;;;;10.20;99.90;;;8.73;100.00;100187.59;2568795;30;137950;-40
2022/04/05 07:23:02;;;;;;;;;;;10.20;99.90;;;8.77;100.00;100186.16;2566512;30;139417;-40
2022/04/05 07:25:30;;;;;;;;;;;10.20;99.90;;;8.86;100.00;100180.44;2568848;30;136832;-39
2022/04/05 07:27:57;;;;;;;;;;;10.20;99.90;;;8.90;100.00;100177.09;2567728;30;137584;-40
2022/04/05 07:30:25;;;;;;;;;;;10.30;99.90;;;8.95;100.00;100179.13;2567446;30;137163;-40
2022/04/05 07:32:59;;;;;;;;;;;10.30;99.90;;;8.97;100.00;100168.84;2569470;30;138636;31
2022/04/05 07:35:27;;;;;;;;;;;10.40;99.90;;;8.94;100.00;100180.19;2567911;30;137485;-40
2022/04/05 07:37:55;;;;;;;;;;;10.40;99.90;;;8.92;100.00;100166.81;2570744;30;137371;-40
2022/04/05 07:40:23;;;;;;;;;;;10.40;99.90;;;9.02;100.00;100179.94;2570741;30;136722;-39
2022/04/05 07:42:50;;;;;;;;;;;10.40;99.90;;;9.04;100.00;100183.28;2570113;30;138549;-40
2022/04/05 07:45:17;;;;;;;;;;;10.40;99.90;;;9.04;100.00;100180.56;2569847;30;137272;-40
2022/04/05 07:47:45;;;;;;;;;;;10.40;99.90;;;9.10;100.00;100178.00;2567244;30;138682;-40
2022/04/05 07:50:13;;;;;;;;;;;10.50;99.90;;;9.10;100.00;100180.75;2570212;30;136965;-40
2022/04/05 07:52:44;;;;;;;;;;;10.50;99.90;;;9.09;100.00;100179.88;2572420;30;137998;-40
2022/04/05 07:55:12;;;;;;;;;;;10.50;99.90;;;9.06;100.00;100186.63;2568884;30;137615;-40
2022/04/05 07:57:40;;;;;;;;;;;10.50;99.90;;;9.08;100.00;100189.09;2569372;30;137254;-40
2022/04/05 08:00:10;;;;;;;;;;;10.50;99.90;;;9.11;100.00;100188.66;2570198;30;137087;-40
2022/04/05 08:02:40;;;;;;;;;;;10.50;99.90;;;9.11;100.00;100196.00;2569708;30;138986;-41
2022/04/05 08:05:13;;;;;;;;;;;10.50;99.90;;;9.15;100.00;100191.78;2568950;30;137265;-40
2022/04/05 08:07:41;;;;;;;;;;;10.60;99.90;;;9.16;100.00;100191.59;2567698;30;138375;-40
2022/04/05 08:10:09;;;;;;;;;;;10.60;99.90;;;9.20;100.00;100195.53;2570731;30;137013;-40
2022/04/05 08:12:42;;;;;;;;;;;10.60;99.90;;;9.20;100.00;100195.53;2569909;30;137904;-40
2022/04/05 08:15:12;;;;;;;;;;;10.60;99.90;;;9.24;100.00;100198.63;2569228;30;137697;-40
2022/04/05 08:17:40;;;;;;;;;;;10.60;99.90;;;9.32;100.00;100198.41;2570530;30;138127;-40
2022/04/05 08:20:09;;;;;;;;;;;10.70;99.90;;;9.31;100.00;100199.44;2568224;30;137131;-40
2022/04/05 08:22:36;;;;;;;;;;;10.70;99.90;;;9.34;100.00;100203.59;2569372;30;137593;-40
2022/04/05 08:25:05;;;;;;;;;;;10.70;99.90;;;9.37;100.00;100200.44;2570996;30;138114;-40
2022/04/05 08:27:33;;;;;;;;;;;10.80;99.90;;;9.39;100.00;100203.78;2569844;30;139130;-40
2022/04/05 08:30:03;;;;;;;;;;;10.80;99.90;;;9.37;100.00;100202.34;2570349;30;136816;-40
2022/04/05 08:32:30;;;;;;;;;;;10.80;99.90;;;9.40;100.00;100201.91;2569379;30;138379;-40
2022/04/05 08:34:58;;;;;;;;;;;10.80;99.90;;;9.52;100.00;100207.47;2571640;30;137183;-40
2022/04/05 08:37:25;;;;;;;;;;;10.90;99.90;;;9.54;100.00;100206.19;2568580;30;138558;-40
2022/04/05 08:39:53;;;;;;;;;;;10.90;99.90;;;9.57;100.00;100213.09;2571633;30;137729;-40
2022/04/05 08:42:20;;;;;;;;;;;10.90;99.90;;;9.56;100.00;100201.38;2569626;30;138598;-40
2022/04/05 08:44:49;;;;;;;;;;;11.00;99.90;;;9.67;100.00;100213.41;2569260;30;137043;-40
2022/04/05 08:47:23;;;;;;;;;;;11.00;99.90;;;9.64;100.00;100214.72;2568942;30;137713;-40
2022/04/05 08:49:50;;;;;;;;;;;11.10;99.90;;;9.63;100.00;100223.09;2571212;30;137184;-40
2022/04/05 08:52:18;;;;;;;;;;;11.00;99.90;;;9.60;100.00;100220.81;2569793;30;137341;-41
2022/04/05 08:54:45;;;;;;;;;;;11.00;99.90;;;9.62;100.00;100216.81;2569975;30;137045;-40
2022/04/05 08:57:13;;;;;;;;;;;11.00;99.90;;;9.68;100.00;100222.44;2569398;30;138214;-40
2022/04/05 08:59:40;;;;;;;;;;;11.00;99.90;;;9.73;100.00;100217.16;2568139;30;136767;-42
2022/04/05 09:02:08;;;;;;;;;;;11.10;99.90;;;9.74;100.00;100227.00;2570408;30;138086;-40
2022/04/05 09:04:35;;;;;;;;;;;11.10;99.90;;;9.75;100.00;100224.06;2569166;30;137156;-40
2022/04/05 09:07:26;;;;;;;;;;;11.10;99.90;;;9.71;100.00;100230.16;2569427;30;138289;-40
2022/04/05 09:10:13;;;;;;;;;;;11.10;99.90;;;9.72;100.00;100226.38;2567872;30;137191;-40
2022/04/05 09:12:41;;;;;;;;;;;11.10;99.90;;;9.70;100.00;100233.94;2570328;30;137505;-40
2022/04/05 09:15:21;;;;;;;;;;;11.10;99.90;;;9.68;100.00;100231.47;2566167;30;138780;-40
2022/04/05 09:17:50;;;;;;;;;;;11.10;99.90;;;9.58;100.00;100231.94;2570095;30;137427;-40
2022/04/05 09:20:19;;;;;;;;;;;11.00;99.90;;;9.62;100.00;100232.31;2569693;30;137196;-40
2022/04/05 09:22:47;;;;;;;;;;;11.00;99.90;;;9.57;100.00;100234.88;2569931;30;138195;-41
2022/04/05 09:25:16;;;;;;;;;;;11.00;99.90;;;9.57;100.00;100235.72;2569838;30;136921;-40
2022/04/05 09:27:56;;;;;;;;;;;11.00;99.90;;;9.62;100.00;100227.72;2568727;30;139086;-40
2022/04/05 09:30:29;;;;;;;;;;;11.00;99.90;;;9.59;100.00;100239.06;2568367;30;137851;-40
2022/04/05 09:32:58;;;;;;;;;;;11.00;99.90;;;9.66;100.00;100238.16;2569390;30;139050;-40
2022/04/05 09:35:43;;;;;;;;;;;11.00;99.90;;;9.72;100.00;100237.28;2568407;30;137146;-40
2022/04/05 09:38:16;;;;;;;;;;;11.00;99.90;;;9.80;100.00;100234.28;2569377;30;137503;-40
2022/04/05 09:40:44;;;;;;;;;;;11.10;99.90;;;9.83;100.00;100244.75;2568443;30;137357;-40
2022/04/05 09:43:31;;;;;;;;;;;11.20;99.90;;;9.83;100.00;100238.47;2570891;30;138848;-40
2022/04/05 09:46:02;;;;;;;;;;;11.20;99.90;;;9.89;100.00;100243.84;2569300;30;136740;-40
2022/04/05 09:48:33;;;;;;;;;;;11.20;99.90;;;9.89;100.00;100245.72;2570610;30;137268;-40
2022/04/05 09:51:19;;;;;;;;;;;11.30;99.90;;;9.94;100.00;100248.63;2569755;30;137180;-40
2022/04/05 09:53:52;;;;;;;;;;;11.30;99.90;;;9.95;100.00;100246.75;2570136;30;138485;-41
2022/04/05 09:56:25;;;;;;;;;;;11.30;99.90;;;9.98;100.00;100247.16;2570571;30;137359;-40
2022/04/05 09:58:57;;;;;;;;;;;11.40;99.90;;;9.95;100.00;100244.03;2570098;30;138609;-40
2022/04/05 10:01:27;;;;;;;;;;;11.40;99.90;;;10.12;100.00;100247.88;2571130;30;137046;-40
2022/04/05 10:04:08;;;;;;;;;;;11.40;99.90;;;10.26;100.00;100247.72;2569558;30;138299;-40
2022/04/05 10:06:43;;;;;;;;;;;11.60;99.90;;;10.45;100.00;100245.88;2568897;30;137543;-40
2022/04/05 10:09:11;;;;;;;;;;;11.70;99.90;;;10.63;100.00;100245.09;2571455;30;138397;-41
2022/04/05 10:11:41;;;;;;;;;;;11.80;99.90;;;10.73;100.00;100248.09;2568103;30;137073;-41
2022/04/05 10:14:12;;;;;;;;;;;12.00;99.90;;;10.76;100.00;100253.09;2570340;30;137922;-40
2022/04/05 10:16:39;;;;;;;;;;;12.10;99.90;;;10.71;100.00;100249.38;2569639;30;137054;-42
2022/04/05 10:19:10;;;;;;;;;;;12.10;99.90;;;10.89;100.00;100262.22;2569311;30;138331;-40
2022/04/05 10:21:40;;;;;;;;;;;12.10;99.90;;;11.05;100.00;100260.75;2571012;30;137441;-40
2022/04/05 10:24:09;;;;;;;;;;;12.30;99.90;;;11.18;100.00;100255.09;2568959;30;136716;-41
2022/04/05 10:26:39;;;;;;;;;;;12.40;99.90;;;11.38;100.00;100254.00;2571564;30;137295;-40
2022/04/05 10:29:15;;;;;;;;;;;12.50;99.90;;;11.50;100.00;100254.84;2569449;30;138497;-40
2022/04/05 10:31:55;;;;;;;;;;;12.70;99.90;;;11.66;100.00;100249.81;2569828;30;136812;-40
2022/04/05 10:34:28;;;;;;;;;;;12.80;99.90;;;11.77;100.00;100250.91;2566011;30;138755;-40
2022/04/05 10:37:18;;;;;;;;;;;13.00;99.90;;;11.85;100.00;100250.56;2570582;30;136789;-41
2022/04/05 10:39:57;;;;;;;;;;;13.00;99.90;;;11.86;100.00;100249.47;2570492;30;138277;-41
2022/04/05 10:42:34;;;;;;;;;;;13.10;99.90;;;11.86;100.00;100254.13;2569970;30;137231;-40
2022/04/05 10:45:16;;;;;;;;;;;13.10;99.90;;;12.04;100.00;100253.22;2569533;30;139479;-41
2022/04/05 10:48:27;;;;;;;;;;;13.20;99.90;;;12.10;100.00;100249.53;2570797;30;137235;-41
2022/04/05 10:51:00;;;;;;;;;;;13.30;99.90;;;12.22;100.00;100247.66;2569166;30;138163;-41
2022/04/05 10:54:17;;;;;;;;;;;13.40;99.90;;;12.28;100.00;100245.03;2568267;30;136935;-41
2022/04/05 10:56:30;;;;;;;;;;;13.50;99.90;;;12.39;100.00;100240.66;2570039;30;138394;-41
2022/04/05 10:59:05;;;;;;;;;;;13.60;99.90;;;12.61;100.00;100238.09;2566598;30;137173;-40
2022/04/05 11:01:43;;;;;;;;;;;13.80;99.90;;;12.66;100.00;100230.84;2570330;30;137230;-41
2022/04/05 11:04:16;;;;;;;;;;;13.80;99.90;;;12.55;100.00;100250.84;2571113;30;137197;-41
2022/04/05 11:06:58;;;;;;;;;;;13.90;99.90;;;12.47;100.00;100249.31;2566847;30;138428;-41
2022/04/05 11:09:32;;;;;;;;;;;13.80;99.90;;;12.34;100.00;100241.34;2569927;30;136787;-41
2022/04/05 11:12:02;;;;;;;;;;;13.70;99.90;;;12.43;100.00;100248.09;2571117;30;138500;-41
2022/04/05 11:14:41;;;;;;;;;;;13.70;99.90;;;12.42;100.00;100248.38;2569484;30;136911;-42
2022/04/05 11:17:12;;;;;;;;;;;13.70;99.90;;;12.47;100.00;100256.69;2568975;30;136913;-40
2022/04/05 11:19:43;;;;;;;;;;;13.70;99.90;;;12.50;100.00;100251.56;2569311;30;137688;-40